Terminal Aerodrome Forecast
Issued by NWS

Home | Current Version | Previous Version | Graphics & Text | Print | Product List | Glossary On
Versions: 1 2 3 4 5 6 7 8 9 10 11 12 13
785
FTUS45 KGGW 212320
TAFSDY
TAF
KSDY 212320Z 2200/2224 35005KT P6SM -RA OVC035
     FM220500 34006KT 4SM -SN SCT015 OVC025
     FM221400 35011KT 2SM -SN SCT003 OVC009
     FM221800 36010KT P6SM SCT003 OVC010=

USA.gov is the U.S. government's official web portal to all federal, state and local government web resources and services.